Time;durP1;ratioP1;P1;durP2;ratioP2;P2;SDS_P1;SDS_P2;PMS_P1;PMS_P2;Temp;Humidity;BMP_temperature;BMP_pressure;BME280_temperature;BME280_humidity;BME280_pressure;Samples;Min_cycle;Max_cycle;Signal;HPM_P1;HPM_P2
2023/06/19 00:00:12;;;;;;;0.52;0.32;;;23.60;99.90;;;;;;5031664;28;20088;-89
2023/06/19 00:02:42;;;;;;;0.38;0.38;;;23.60;99.90;;;;;;5031645;28;20032;-89
2023/06/19 00:05:08;;;;;;;0.88;0.60;;;23.40;99.90;;;;;;5032173;28;20037;-88
2023/06/19 00:07:38;;;;;;;0.10;0.10;;;23.50;99.90;;;;;;5031696;28;20028;-89
2023/06/19 00:10:05;;;;;;;0.60;0.60;;;23.50;99.90;;;;;;5013614;28;20029;-89
2023/06/19 00:12:31;;;;;;;0.30;0.30;;;23.60;99.90;;;;;;5013849;28;20466;-89
2023/06/19 00:14:56;;;;;;;0.25;0.25;;;23.60;99.90;;;;;;5032054;28;20104;-88
2023/06/19 00:17:22;;;;;;;0.10;0.10;;;23.40;99.90;;;;;;5031570;28;20021;-89
2023/06/19 00:19:48;;;;;;;1.75;0.40;;;23.50;99.90;;;;;;5031731;28;20080;-89
2023/06/19 00:22:14;;;;;;;0.60;0.40;;;23.50;99.90;;;;;;5031559;28;20091;-89
2023/06/19 00:24:40;;;;;;;0.68;0.55;;;23.50;99.90;;;;;;5031552;28;20061;-89
2023/06/19 00:27:06;;;;;;;0.52;0.50;;;23.50;99.90;;;;;;5031395;28;20056;-89
2023/06/19 00:29:32;;;;;;;2.70;1.05;;;23.50;99.90;;;;;;5031410;28;20025;-89
2023/06/19 00:31:59;;;;;;;0.30;0.30;;;23.50;99.90;;;;;;5031288;28;20033;-89
2023/06/19 00:34:24;;;;;;;0.98;0.82;;;23.40;99.90;;;;;;5031378;28;20032;-88
2023/06/19 00:36:57;;;;;;;0.30;0.30;;;23.30;99.90;;;;;;5014069;28;20037;-89
2023/06/19 00:39:23;;;;;;;0.30;0.30;;;23.30;99.90;;;;;;5031082;28;20045;-88
2023/06/19 00:41:51;;;;;;;1.40;0.85;;;23.30;99.90;;;;;;5013476;28;20049;-88
2023/06/19 00:44:17;;;;;;;0.22;0.22;;;23.10;99.90;;;;;;5031490;28;20490;-88
2023/06/19 00:46:43;;;;;;;0.30;0.30;;;23.20;99.90;;;;;;5013916;28;20034;-88
2023/06/19 00:49:08;;;;;;;0.45;0.45;;;23.30;99.90;;;;;;5032615;28;20021;-89
2023/06/19 00:51:34;;;;;;;0.30;0.30;;;23.20;99.90;;;;;;5017374;28;20112;-88
2023/06/19 00:54:00;;;;;;;0.25;0.25;;;23.20;99.90;;;;;;5017330;28;20032;-88
2023/06/19 00:56:26;;;;;;;1.05;0.95;;;23.30;99.90;;;;;;5034877;28;20045;-88
2023/06/19 00:58:53;;;;;;;0.40;0.40;;;23.30;99.90;;;;;;5034853;28;20538;-88
2023/06/19 01:01:21;;;;;;;0.75;0.40;;;23.20;99.90;;;;;;5034757;28;20398;-89
2023/06/19 01:03:47;;;;;;;1.15;0.68;;;23.30;99.90;;;;;;5035141;28;20026;-88
2023/06/19 01:06:22;;;;;;;0.32;0.25;;;23.30;99.90;;;;;;5034878;28;20053;-89
2023/06/19 01:08:57;;;;;;;0.90;0.68;;;23.30;99.90;;;;;;5034547;28;20092;-89
2023/06/19 01:11:26;;;;;;;1.65;0.32;;;23.30;99.90;;;;;;5034643;28;20033;-89
2023/06/19 01:14:01;;;;;;;0.30;0.30;;;23.30;99.90;;;;;;5035000;28;20025;-88
2023/06/19 01:16:28;;;;;;;2.63;1.02;;;23.30;99.90;;;;;;5034890;28;20056;-89
2023/06/19 01:18:54;;;;;;;0.30;0.30;;;23.20;99.90;;;;;;5034626;28;20428;-89
2023/06/19 01:21:20;;;;;;;0.30;0.30;;;23.20;99.90;;;;;;5017038;28;20104;-89
2023/06/19 01:23:46;;;;;;;0.47;0.35;;;23.20;99.90;;;;;;5016669;28;20390;-89
2023/06/19 01:26:13;;;;;;;0.10;0.10;;;23.10;99.90;;;;;;5034470;28;20032;-89
2023/06/19 01:28:41;;;;;;;0.43;0.43;;;23.10;99.90;;;;;;5034858;28;20022;-89
2023/06/19 01:31:20;;;;;;;2.90;0.93;;;23.00;99.90;;;;;;5034800;28;20030;-88
2023/06/19 01:33:47;;;;;;;0.20;0.20;;;23.00;99.90;;;;;;5016978;28;20026;-89
2023/06/19 01:36:14;;;;;;;0.60;0.60;;;23.00;99.90;;;;;;5016452;28;20215;-89
2023/06/19 01:38:42;;;;;;;0.65;0.40;;;23.00;99.90;;;;;;5034648;28;20029;-89
2023/06/19 01:41:09;;;;;;;0.57;0.57;;;22.90;99.90;;;;;;5016574;28;20056;-88
2023/06/19 01:43:36;;;;;;;0.57;0.55;;;22.90;99.90;;;;;;5016339;28;20026;-89
2023/06/19 01:46:01;;;;;;;0.43;0.43;;;22.80;99.90;;;;;;5016864;28;20048;-88
2023/06/19 01:48:27;;;;;;;0.20;0.20;;;22.80;99.90;;;;;;5034262;28;20021;-88
2023/06/19 01:50:53;;;;;;;0.28;0.28;;;22.90;99.90;;;;;;5015978;28;20109;-88
2023/06/19 01:53:19;;;;;;;0.95;0.45;;;22.90;99.90;;;;;;5016076;28;20037;-88
2023/06/19 01:55:44;;;;;;;1.98;0.52;;;22.90;99.90;;;;;;5016595;28;20044;-88
2023/06/19 01:58:10;;;;;;;0.32;0.32;;;22.90;99.90;;;;;;5033899;28;20104;-89
2023/06/19 02:00:36;;;;;;;0.22;0.22;;;23.00;99.90;;;;;;5033065;28;20033;-88
2023/06/19 02:03:02;;;;;;;1.05;0.52;;;22.90;99.90;;;;;;5033743;28;20112;-89
2023/06/19 02:05:29;;;;;;;0.22;0.22;;;22.80;99.90;;;;;;5016206;28;20514;-89
2023/06/19 02:07:54;;;;;;;0.68;0.40;;;22.90;99.90;;;;;;5033587;28;20092;-89
2023/06/19 02:10:20;;;;;;;0.28;0.28;;;22.90;99.90;;;;;;5033830;28;20056;-88
2023/06/19 02:12:46;;;;;;;0.30;0.30;;;22.90;99.90;;;;;;5033739;28;20037;-88
2023/06/19 02:15:11;;;;;;;0.15;0.15;;;22.90;99.90;;;;;;5033659;28;20410;-89
2023/06/19 02:17:37;;;;;;;0.35;0.30;;;23.00;99.90;;;;;;5016046;28;20030;-89
2023/06/19 02:20:07;;;;;;;0.40;0.40;;;23.10;99.90;;;;;;5033153;28;20104;-88
2023/06/19 02:22:33;;;;;;;0.50;0.35;;;23.10;99.90;;;;;;5033265;28;20041;-89
2023/06/19 02:24:58;;;;;;;0.43;0.43;;;23.00;99.90;;;;;;5033484;28;20025;-88
2023/06/19 02:27:24;;;;;;;0.30;0.30;;;23.00;99.90;;;;;;5033683;28;20525;-88
2023/06/19 02:29:50;;;;;;;0.10;0.10;;;23.00;99.90;;;;;;5032319;28;20017;-88
2023/06/19 02:32:15;;;;;;;0.30;0.30;;;23.10;99.90;;;;;;5013277;28;20036;-88
2023/06/19 02:34:41;;;;;;;0.35;0.35;;;23.10;99.90;;;;;;5013107;28;20410;-88
2023/06/19 02:37:08;;;;;;;0.10;0.10;;;23.10;99.90;;;;;;5013408;28;20080;-88
2023/06/19 02:39:33;;;;;;;0.10;0.10;;;23.10;99.90;;;;;;5013328;28;20033;-88
2023/06/19 02:41:59;;;;;;;0.40;0.40;;;23.00;99.90;;;;;;4995498;28;20120;-89
2023/06/19 02:44:25;;;;;;;0.55;0.47;;;23.10;99.90;;;;;;5013665;28;20069;-88
2023/06/19 02:46:50;;;;;;;0.10;0.10;;;23.00;99.90;;;;;;4995064;28;20395;-88
2023/06/19 02:49:16;;;;;;;0.10;0.10;;;23.00;99.90;;;;;;5012942;28;20038;-89
2023/06/19 02:51:42;;;;;;;0.40;0.30;;;22.90;99.90;;;;;;4995873;28;20033;-88
2023/06/19 02:54:07;;;;;;;0.13;0.13;;;22.90;99.90;;;;;;4995501;28;20022;-88
2023/06/19 02:56:33;;;;;;;0.00;0.00;;;22.60;99.90;;;;;;4995448;28;20068;-89
2023/06/19 02:58:58;;;;;;;0.20;0.20;;;22.70;99.90;;;;;;5013431;28;20022;-88
2023/06/19 03:01:24;;;;;;;0.40;0.40;;;22.70;99.90;;;;;;4995291;28;20426;-88
2023/06/19 03:03:52;;;;;;;0.32;0.30;;;22.80;99.90;;;;;;4995024;28;20026;-88
2023/06/19 03:06:17;;;;;;;0.80;0.52;;;22.80;99.90;;;;;;5013320;28;20037;-89
2023/06/19 03:08:44;;;;;;;0.47;0.30;;;22.80;99.90;;;;;;5012972;28;20364;-87
2023/06/19 03:11:11;;;;;;;0.17;0.17;;;22.90;99.90;;;;;;5012764;28;20395;-88
2023/06/19 03:13:51;;;;;;;0.10;0.10;;;22.70;99.90;;;;;;5012748;28;20014;-88
2023/06/19 03:16:17;;;;;;;0.10;0.10;;;22.70;99.90;;;;;;5012497;28;20499;-87
2023/06/19 03:18:47;;;;;;;0.10;0.10;;;22.70;99.90;;;;;;5012703;28;20033;-87
2023/06/19 03:21:15;;;;;;;0.15;0.13;;;22.70;99.90;;;;;;5012654;28;20550;-87
2023/06/19 03:23:41;;;;;;;0.17;0.17;;;22.70;99.90;;;;;;5012530;28;20033;-87
2023/06/19 03:26:07;;;;;;;0.10;0.10;;;22.70;99.90;;;;;;5011209;28;20022;-86
2023/06/19 03:28:34;;;;;;;0.50;0.30;;;22.70;99.90;;;;;;5012444;28;20085;-88
2023/06/19 03:31:00;;;;;;;0.10;0.10;;;22.60;99.90;;;;;;4994600;28;20113;-86
2023/06/19 03:33:26;;;;;;;0.20;0.20;;;22.70;99.90;;;;;;5012071;28;20095;-85
2023/06/19 03:35:51;;;;;;;0.10;0.10;;;22.70;99.90;;;;;;5012233;28;20438;-85
2023/06/19 03:38:17;;;;;;;0.13;0.13;;;22.70;99.90;;;;;;5012645;28;20033;-86
2023/06/19 03:40:42;;;;;;;0.25;0.25;;;22.80;99.90;;;;;;5017543;28;20077;-85
2023/06/19 03:43:08;;;;;;;0.25;0.25;;;22.90;99.90;;;;;;5032476;28;20056;-85
2023/06/19 03:45:34;;;;;;;0.30;0.30;;;22.80;99.90;;;;;;5031862;28;20037;-85
2023/06/19 03:47:59;;;;;;;0.10;0.10;;;22.80;99.90;;;;;;5031483;28;20076;-86
2023/06/19 03:50:25;;;;;;;0.10;0.10;;;22.80;99.90;;;;;;5032469;28;20022;-85
2023/06/19 03:52:50;;;;;;;0.10;0.10;;;22.80;99.90;;;;;;5014234;28;20025;-85
2023/06/19 03:55:17;;;;;;;0.17;0.17;;;22.90;99.90;;;;;;5031701;28;20498;-86
2023/06/19 03:57:43;;;;;;;0.13;0.13;;;22.80;99.90;;;;;;5014548;28;20120;-86
2023/06/19 04:00:10;;;;;;;0.25;0.25;;;22.60;99.90;;;;;;5031552;28;20056;-85
2023/06/19 04:02:36;;;;;;;0.17;0.17;;;22.90;99.90;;;;;;5031312;28;20029;-86
2023/06/19 04:05:02;;;;;;;0.00;0.00;;;22.80;99.90;;;;;;5014105;28;20017;-85
2023/06/19 04:07:28;;;;;;;0.20;0.20;;;22.80;99.90;;;;;;5031603;28;20474;-86
2023/06/19 04:09:54;;;;;;;0.20;0.20;;;22.90;99.90;;;;;;5032144;28;20033;-86
2023/06/19 04:12:20;;;;;;;0.10;0.10;;;22.90;99.90;;;;;;5031597;28;20051;-86
2023/06/19 04:14:45;;;;;;;0.10;0.10;;;22.90;99.90;;;;;;5031568;28;20497;-85
2023/06/19 04:17:11;;;;;;;0.17;0.17;;;22.90;99.90;;;;;;5031335;28;20022;-86
2023/06/19 04:19:37;;;;;;;0.20;0.20;;;22.90;99.90;;;;;;5031721;28;20033;-86
2023/06/19 04:22:02;;;;;;;0.40;0.30;;;22.90;99.90;;;;;;5032000;28;20025;-85
2023/06/19 04:24:28;;;;;;;0.17;0.17;;;22.90;99.90;;;;;;5033736;28;20108;-85
2023/06/19 04:26:54;;;;;;;0.20;0.20;;;22.90;99.90;;;;;;5035514;28;20024;-85
2023/06/19 04:29:19;;;;;;;0.17;0.17;;;22.90;99.90;;;;;;5035536;28;20032;-86
2023/06/19 04:31:46;;;;;;;0.10;0.10;;;22.90;99.90;;;;;;5035111;28;20455;-86
2023/06/19 04:34:20;;;;;;;0.30;0.30;;;22.90;99.90;;;;;;5035527;28;20033;-86
2023/06/19 04:36:49;;;;;;;0.20;0.20;;;22.90;99.90;;;;;;5035441;28;20037;-85
2023/06/19 04:39:15;;;;;;;0.20;0.20;;;23.00;99.90;;;;;;5035494;28;20022;-85
2023/06/19 04:41:43;;;;;;;0.10;0.10;;;23.10;99.90;;;;;;5035526;28;20088;-86
2023/06/19 04:44:11;;;;;;;0.10;0.10;;;23.10;99.90;;;;;;5035073;28;20025;-85
2023/06/19 04:46:37;;;;;;;0.10;0.10;;;23.10;99.90;;;;;;5025774;28;20034;-96
2023/06/19 04:49:03;;;;;;;0.20;0.20;;;23.10;99.90;;;;;;5035259;28;20493;-95
2023/06/19 04:51:32;;;;;;;0.10;0.10;;;23.10;99.90;;;;;;5017659;28;20065;-96
2023/06/19 04:53:59;;;;;;;0.17;0.17;;;23.10;99.90;;;;;;5018661;28;20045;-96
2023/06/19 04:56:25;;;;;;;0.03;0.03;;;23.10;99.90;;;;;;5028677;28;20041;-95
2023/06/19 04:58:51;;;;;;;0.10;0.10;;;23.10;99.90;;;;;;5020182;28;20022;-94
2023/06/19 05:01:17;;;;;;;0.22;0.22;;;23.10;99.90;;;;;;5029268;28;20040;-95
2023/06/19 05:03:45;;;;;;;0.10;0.10;;;23.00;99.90;;;;;;5036188;28;20426;-86
2023/06/19 05:06:11;;;;;;;0.52;0.52;;;23.10;99.90;;;;;;5018837;28;20108;-89
2023/06/19 05:08:37;;;;;;;0.10;0.10;;;22.70;99.90;;;;;;5029685;28;20069;-91
2023/06/19 05:11:06;;;;;;;0.00;0.00;;;22.50;99.90;;;;;;5017999;28;20045;-95
2023/06/19 05:13:31;;;;;;;0.03;0.03;;;22.50;99.90;;;;;;5004098;28;20034;-91
2023/06/19 05:15:57;;;;;;;0.30;0.25;;;22.60;99.90;;;;;;5003448;28;20474;-95
2023/06/19 05:18:22;;;;;;;0.00;0.00;;;22.60;99.90;;;;;;5022736;28;20024;-95
2023/06/19 05:20:48;;;;;;;0.20;0.20;;;22.60;99.90;;;;;;5018419;28;20367;-93
2023/06/19 05:23:25;;;;;;;0.55;0.30;;;22.60;99.90;;;;;;5021436;28;20438;-95
2023/06/19 05:28:30;;;;;;;0.10;0.10;;;22.80;99.90;;;;;;5570909;22;20020;-96
2023/06/19 05:30:56;;;;;;;0.00;0.00;;;22.90;58.50;;;;;;5046958;28;20051;-94
2023/06/19 05:34:17;;;;;;;0.10;0.10;;;22.90;99.90;;;;;;5068143;28;20068;-96
2023/06/19 05:36:47;;;;;;;0.00;0.00;;;22.90;99.90;;;;;;5061887;23;20551;-87
2023/06/19 05:39:13;;;;;;;0.45;0.13;;;22.90;99.90;;;;;;5021552;28;20029;-86
2023/06/19 05:41:39;;;;;;;0.00;0.00;;;22.90;99.90;;;;;;5035320;28;20494;-93
2023/06/19 05:44:14;;;;;;;0.00;0.00;;;22.80;99.90;;;;;;5036128;28;20112;-91
2023/06/19 05:46:40;;;;;;;0.00;0.00;;;22.90;99.90;;;;;;5001307;28;20093;-92
2023/06/19 05:49:20;;;;;;;0.10;0.10;;;22.80;99.90;;;;;;5020217;28;20076;-93
2023/06/19 05:51:47;;;;;;;0.00;0.00;;;22.90;99.90;;;;;;5037419;28;20381;-95
2023/06/19 05:54:13;;;;;;;0.28;0.20;;;22.70;99.90;;;;;;5037119;28;20014;-94
2023/06/19 05:56:39;;;;;;;0.10;0.10;;;22.70;99.90;;;;;;5034962;28;20509;-94
2023/06/19 05:59:05;;;;;;;0.00;0.00;;;22.70;99.90;;;;;;5018093;28;20076;-93
2023/06/19 06:01:30;;;;;;;0.10;0.10;;;22.80;99.90;;;;;;5035692;28;20505;-94
2023/06/19 06:03:57;;;;;;;0.00;0.00;;;22.90;99.90;;;;;;5035333;28;20021;-94
2023/06/19 06:06:23;;;;;;;0.45;0.10;;;22.90;99.90;;;;;;5035788;28;20436;-94
2023/06/19 06:08:49;;;;;;;0.10;0.10;;;22.90;99.90;;;;;;5017842;28;20033;-93
2023/06/19 06:11:14;;;;;;;0.00;0.00;;;22.80;99.90;;;;;;5017711;28;20033;-94
2023/06/19 06:13:40;;;;;;;0.20;0.20;;;22.80;99.90;;;;;;5034828;28;20081;-93
2023/06/19 06:16:06;;;;;;;0.00;0.00;;;22.90;99.90;;;;;;5017580;28;20124;-93
2023/06/19 06:18:31;;;;;;;0.00;0.00;;;22.90;99.90;;;;;;5035235;28;20030;-94
2023/06/19 06:20:59;;;;;;;0.03;0.03;;;22.70;99.90;;;;;;5035456;28;20538;-94
2023/06/19 06:23:24;;;;;;;0.00;0.00;;;22.80;99.90;;;;;;5035994;28;20022;-93
2023/06/19 06:25:50;;;;;;;0.00;0.00;;;22.90;99.90;;;;;;5035108;28;20044;-94
2023/06/19 06:28:16;;;;;;;0.35;0.25;;;23.00;99.90;;;;;;5034842;28;20064;-94
2023/06/19 06:30:41;;;;;;;0.10;0.10;;;23.00;99.90;;;;;;5034982;28;20145;-93
2023/06/19 06:33:07;;;;;;;0.00;0.00;;;23.00;99.90;;;;;;5034972;28;20021;-94
2023/06/19 06:35:34;;;;;;;0.10;0.10;;;22.90;99.90;;;;;;5017424;28;20048;-94
2023/06/19 06:37:59;;;;;;;0.10;0.10;;;22.90;99.90;;;;;;5017570;28;20055;-93
2023/06/19 06:40:25;;;;;;;0.00;0.00;;;22.90;99.90;;;;;;5034586;28;20025;-93
2023/06/19 06:42:51;;;;;;;0.03;0.03;;;22.80;99.90;;;;;;5016028;28;20076;-83
2023/06/19 06:45:16;;;;;;;0.25;0.25;;;22.90;99.90;;;;;;5033150;28;20060;-84
2023/06/19 06:47:42;;;;;;;0.00;0.00;;;23.00;99.90;;;;;;5032937;28;20036;-84
2023/06/19 06:50:09;;;;;;;0.10;0.10;;;23.00;99.90;;;;;;5033787;28;20564;-85
2023/06/19 06:52:35;;;;;;;0.85;0.43;;;22.60;99.90;;;;;;5033385;28;20025;-84
2023/06/19 06:55:00;;;;;;;0.28;0.05;;;22.70;99.90;;;;;;5033022;28;20034;-85
2023/06/19 06:57:26;;;;;;;0.10;0.10;;;22.80;99.90;;;;;;5032769;28;20087;-84
2023/06/19 06:59:51;;;;;;;0.55;0.25;;;22.70;99.90;;;;;;5032966;28;20068;-84
2023/06/19 07:02:17;;;;;;;0.20;0.20;;;22.70;99.90;;;;;;5033211;28;20022;-84
2023/06/19 07:04:43;;;;;;;0.10;0.10;;;22.60;99.90;;;;;;5015294;28;20371;-84
2023/06/19 07:07:08;;;;;;;0.25;0.20;;;22.70;99.90;;;;;;5032942;28;20470;-84
2023/06/19 07:09:34;;;;;;;0.15;0.15;;;22.70;99.90;;;;;;5033096;28;20029;-84
2023/06/19 07:12:04;;;;;;;0.63;0.40;;;22.60;99.90;;;;;;5032367;28;20424;-84
2023/06/19 07:14:29;;;;;;;0.10;0.10;;;22.80;99.90;;;;;;5032826;28;20017;-84
2023/06/19 07:16:55;;;;;;;0.00;0.00;;;22.90;99.90;;;;;;5032649;28;20044;-84
2023/06/19 07:19:21;;;;;;;0.20;0.20;;;22.80;99.90;;;;;;5032611;28;20033;-84
2023/06/19 07:21:46;;;;;;;0.28;0.28;;;22.70;99.90;;;;;;5032890;28;20521;-84
2023/06/19 07:24:12;;;;;;;0.10;0.10;;;22.60;99.90;;;;;;5032527;28;20025;-84
2023/06/19 07:26:37;;;;;;;0.10;0.10;;;22.60;99.90;;;;;;5032211;28;20107;-84
2023/06/19 07:29:03;;;;;;;0.45;0.45;;;22.60;99.90;;;;;;5032590;28;20382;-84
2023/06/19 07:31:29;;;;;;;0.20;0.20;;;22.60;99.90;;;;;;5032274;28;20072;-84
2023/06/19 07:33:54;;;;;;;0.40;0.40;;;22.60;99.90;;;;;;5032577;28;20041;-84
2023/06/19 07:36:20;;;;;;;0.25;0.25;;;22.70;99.90;;;;;;5032060;28;20466;-85
2023/06/19 07:38:45;;;;;;;0.00;0.00;;;22.50;99.90;;;;;;5032414;28;20030;-84
2023/06/19 07:41:11;;;;;;;0.80;0.52;;;22.50;99.90;;;;;;5032818;28;20385;-85
2023/06/19 07:43:39;;;;;;;0.35;0.20;;;22.60;99.90;;;;;;5032331;28;20110;-85
2023/06/19 07:46:05;;;;;;;0.30;0.30;;;22.70;99.90;;;;;;5032368;28;20461;-84
2023/06/19 07:48:31;;;;;;;0.10;0.10;;;22.80;99.90;;;;;;5032697;28;20030;-84
2023/06/19 07:50:56;;;;;;;0.30;0.30;;;22.70;99.90;;;;;;5032161;28;20024;-85
2023/06/19 07:53:22;;;;;;;0.80;0.60;;;22.60;99.90;;;;;;5031847;28;20060;-85
2023/06/19 07:55:48;;;;;;;0.30;0.30;;;22.60;99.90;;;;;;5032028;28;20038;-85
2023/06/19 07:58:14;;;;;;;0.77;0.68;;;22.70;99.90;;;;;;5031493;28;20104;-85
2023/06/19 08:00:39;;;;;;;0.25;0.25;;;22.90;99.90;;;;;;5031990;28;20064;-85
2023/06/19 08:03:05;;;;;;;0.10;0.10;;;22.70;99.90;;;;;;5032257;28;20032;-84
2023/06/19 08:05:31;;;;;;;1.52;0.90;;;22.90;99.90;;;;;;5032124;28;20425;-85
2023/06/19 08:07:58;;;;;;;1.45;0.70;;;23.10;99.90;;;;;;5031994;28;20036;-85
2023/06/19 08:10:24;;;;;;;0.45;0.38;;;23.10;99.90;;;;;;5032258;28;20390;-85
2023/06/19 08:12:50;;;;;;;0.38;0.38;;;23.20;99.90;;;;;;5031913;28;20026;-85
2023/06/19 08:15:15;;;;;;;0.60;0.60;;;23.10;99.90;;;;;;5032226;28;20033;-85
2023/06/19 08:17:42;;;;;;;1.45;0.77;;;23.00;99.90;;;;;;5032218;28;20026;-85
2023/06/19 08:20:08;;;;;;;0.30;0.30;;;23.00;99.90;;;;;;5031966;28;20022;-85
2023/06/19 08:22:34;;;;;;;0.75;0.47;;;22.80;99.90;;;;;;5031908;28;20034;-85
2023/06/19 08:25:00;;;;;;;0.50;0.50;;;22.80;99.90;;;;;;5031834;28;20359;-85
2023/06/19 08:27:25;;;;;;;0.85;0.73;;;22.80;99.90;;;;;;5032199;28;20033;-85
2023/06/19 08:29:51;;;;;;;0.70;0.70;;;22.90;99.90;;;;;;5031984;28;20040;-85
2023/06/19 08:32:17;;;;;;;0.50;0.50;;;23.00;99.90;;;;;;5031910;28;20029;-85
2023/06/19 08:34:42;;;;;;;0.30;0.30;;;23.00;99.90;;;;;;5031603;28;20394;-85
2023/06/19 08:37:08;;;;;;;0.10;0.10;;;23.00;99.90;;;;;;5031611;28;20049;-85
2023/06/19 08:39:36;;;;;;;0.68;0.68;;;23.10;99.90;;;;;;5031790;28;20033;-85
2023/06/19 08:42:02;;;;;;;0.52;0.30;;;23.30;99.90;;;;;;5031403;28;20026;-85
2023/06/19 08:44:28;;;;;;;0.20;0.20;;;23.40;99.90;;;;;;5031863;28;20037;-85
2023/06/19 08:46:54;;;;;;;0.40;0.30;;;23.40;99.90;;;;;;5032026;28;20057;-85
2023/06/19 08:49:19;;;;;;;0.52;0.45;;;23.40;99.90;;;;;;5031532;28;20072;-85
2023/06/19 08:51:45;;;;;;;0.90;0.90;;;23.60;99.90;;;;;;5031414;28;20100;-85
2023/06/19 08:54:11;;;;;;;0.63;0.63;;;23.70;99.90;;;;;;5032079;28;20030;-85
2023/06/19 08:56:37;;;;;;;1.50;0.95;;;23.90;99.90;;;;;;5031626;28;20095;-85
2023/06/19 08:59:17;;;;;;;0.73;0.30;;;24.10;99.90;;;;;;5031869;28;20026;-85
2023/06/19 09:01:54;;;;;;;0.45;0.43;;;24.50;99.90;;;;;;5031628;28;20029;-85
2023/06/19 09:04:26;;;;;;;3.53;0.80;;;24.50;99.90;;;;;;5032257;28;20108;-85
2023/06/19 09:07:00;;;;;;;0.43;0.40;;;24.40;99.90;;;;;;5031056;28;20416;-85
2023/06/19 09:09:26;;;;;;;0.75;0.30;;;24.60;99.90;;;;;;5032066;28;20045;-85
2023/06/19 09:12:01;;;;;;;1.08;0.75;;;24.60;99.90;;;;;;5035165;28;20047;-85
2023/06/19 09:14:41;;;;;;;0.55;0.40;;;24.60;99.90;;;;;;5035036;28;20042;-85
2023/06/19 09:17:10;;;;;;;0.55;0.43;;;24.70;99.90;;;;;;5035117;28;20064;-85
2023/06/19 09:19:35;;;;;;;1.55;0.65;;;24.70;99.90;;;;;;5034904;28;20375;-85
2023/06/19 09:22:08;;;;;;;1.25;0.50;;;24.70;99.90;;;;;;5034908;28;20037;-85
2023/06/19 09:24:39;;;;;;;0.30;0.30;;;24.70;99.90;;;;;;5034946;28;20397;-85
2023/06/19 09:27:13;;;;;;;0.70;0.60;;;24.70;99.90;;;;;;5035024;28;20068;-85
2023/06/19 09:29:43;;;;;;;7.75;1.25;;;24.80;99.90;;;;;;5035206;28;20029;-85
2023/06/19 09:32:20;;;;;;;0.40;0.40;;;24.70;99.90;;;;;;5015288;28;20038;-85
2023/06/19 09:34:46;;;;;;;0.13;0.13;;;24.80;99.90;;;;;;5014675;28;20030;-85
2023/06/19 09:37:12;;;;;;;0.20;0.20;;;25.00;99.90;;;;;;5014667;28;20045;-85
2023/06/19 09:39:38;;;;;;;0.10;0.10;;;25.20;99.90;;;;;;5014978;28;20103;-85
2023/06/19 09:42:07;;;;;;;0.30;0.30;;;25.40;99.90;;;;;;5019479;28;20025;-85
2023/06/19 09:44:45;;;;;;;0.50;0.50;;;25.70;99.90;;;;;;5016826;28;20029;-85
2023/06/19 09:47:20;;;;;;;1.00;0.50;;;25.70;99.90;;;;;;5034926;28;20037;-85
2023/06/19 09:49:50;;;;;;;1.80;1.10;;;25.90;99.90;;;;;;5034199;28;20394;-85
2023/06/19 09:52:16;;;;;;;0.80;0.80;;;26.20;99.90;;;;;;5034704;28;20393;-85
2023/06/19 09:54:46;;;;;;;0.63;0.63;;;26.40;99.90;;;;;;5034328;28;20378;-86
2023/06/19 09:57:12;;;;;;;0.30;0.30;;;26.50;99.90;;;;;;5034563;28;20030;-85
2023/06/19 09:59:40;;;;;;;0.45;0.45;;;26.70;99.90;;;;;;5034311;28;20029;-85
2023/06/19 10:02:06;;;;;;;0.25;0.25;;;26.40;99.90;;;;;;5034038;28;20106;-85
2023/06/19 10:04:45;;;;;;;0.43;0.43;;;26.60;99.90;;;;;;5033960;28;20060;-85
2023/06/19 10:07:32;;;;;;;0.10;0.10;;;26.70;99.90;;;;;;5034120;28;20379;-85
2023/06/19 10:09:59;;;;;;;0.43;0.40;;;26.90;99.90;;;;;;5034176;28;20022;-85
2023/06/19 10:12:40;;;;;;;0.10;0.10;;;26.70;99.90;;;;;;5034053;28;20022;-85
2023/06/19 10:15:10;;;;;;;0.25;0.22;;;26.60;99.90;;;;;;5033965;28;20029;-86
2023/06/19 10:17:37;;;;;;;0.60;0.52;;;26.30;99.90;;;;;;5033782;28;20017;-85
2023/06/19 10:20:03;;;;;;;0.30;0.30;;;26.50;99.90;;;;;;5033533;28;20021;-85
2023/06/19 10:22:32;;;;;;;0.63;0.63;;;26.90;99.90;;;;;;5033442;28;20037;-85
2023/06/19 10:24:58;;;;;;;2.28;0.38;;;26.90;99.90;;;;;;5016046;28;20025;-86
2023/06/19 10:27:25;;;;;;;0.70;0.70;;;27.00;99.90;;;;;;5034179;28;20546;-85
2023/06/19 10:29:57;;;;;;;0.40;0.40;;;27.30;99.90;;;;;;5033976;28;20025;-85
2023/06/19 10:32:23;;;;;;;0.30;0.30;;;27.50;99.90;;;;;;5034053;28;20117;-85
2023/06/19 10:34:48;;;;;;;1.55;1.40;;;27.80;99.90;;;;;;5033114;28;20116;-85
2023/06/19 10:37:15;;;;;;;0.70;0.68;;;27.20;99.90;;;;;;5033317;28;20115;-86
2023/06/19 10:39:42;;;;;;;0.43;0.43;;;26.80;99.90;;;;;;5033744;28;20025;-85
2023/06/19 10:42:09;;;;;;;0.25;0.25;;;26.90;99.90;;;;;;5033625;28;20433;-85
2023/06/19 10:44:35;;;;;;;1.15;0.80;;;27.00;99.90;;;;;;5033387;28;20029;-84
2023/06/19 10:47:01;;;;;;;0.55;0.55;;;27.00;99.90;;;;;;5033446;28;20029;-85
2023/06/19 10:49:27;;;;;;;0.17;0.17;;;27.20;99.90;;;;;;5032917;28;20551;-85
2023/06/19 10:51:58;;;;;;;2.10;0.98;;;27.20;99.90;;;;;;5033751;28;20018;-85
2023/06/19 10:54:24;;;;;;;1.08;0.65;;;27.40;99.90;;;;;;5033174;28;20025;-85
2023/06/19 10:56:51;;;;;;;1.08;0.82;;;27.50;99.90;;;;;;5033043;28;20042;-85
2023/06/19 10:59:18;;;;;;;0.93;0.75;;;27.20;99.90;;;;;;5032988;28;20032;-85
2023/06/19 11:01:50;;;;;;;1.30;0.70;;;27.30;99.90;;;;;;5032588;28;20026;-85
2023/06/19 11:04:16;;;;;;;0.20;0.20;;;27.20;99.90;;;;;;5015403;28;20536;-85
2023/06/19 11:06:43;;;;;;;0.55;0.52;;;27.30;99.90;;;;;;5032814;28;20028;-85
2023/06/19 11:09:10;;;;;;;0.57;0.50;;;27.50;99.90;;;;;;5033312;28;20037;-85
2023/06/19 11:11:41;;;;;;;1.05;0.47;;;27.70;99.90;;;;;;5032962;28;20473;-85
2023/06/19 11:14:08;;;;;;;1.20;0.70;;;28.10;99.90;;;;;;5032605;28;20485;-85
2023/06/19 11:16:35;;;;;;;1.17;0.75;;;28.10;99.90;;;;;;5032267;28;20128;-85
2023/06/19 11:19:01;;;;;;;0.90;0.85;;;28.20;99.90;;;;;;5033224;28;20029;-84
2023/06/19 11:21:38;;;;;;;0.98;0.88;;;28.10;99.90;;;;;;5032801;28;20067;-85
2023/06/19 11:24:11;;;;;;;0.68;0.57;;;27.80;99.90;;;;;;5032733;28;20055;-85
2023/06/19 11:26:49;;;;;;;0.55;0.55;;;27.90;99.90;;;;;;5032513;28;20025;-85
2023/06/19 11:29:18;;;;;;;0.40;0.40;;;28.00;99.90;;;;;;5032464;28;20534;-85
2023/06/19 11:31:44;;;;;;;0.47;0.47;;;28.00;99.90;;;;;;5032204;28;20029;-85
2023/06/19 11:34:11;;;;;;;2.70;1.15;;;28.00;99.90;;;;;;5032893;28;20033;-85
2023/06/19 11:36:37;;;;;;;0.70;0.70;;;28.00;99.90;;;;;;5014324;28;20077;-85
2023/06/19 11:39:05;;;;;;;0.65;0.65;;;28.20;99.90;;;;;;5014795;28;20436;-84
2023/06/19 11:41:30;;;;;;;0.38;0.38;;;28.20;99.90;;;;;;5032188;28;20033;-85
2023/06/19 11:44:00;;;;;;;0.43;0.38;;;28.50;99.90;;;;;;5032458;28;20029;-84
2023/06/19 11:46:30;;;;;;;0.60;0.52;;;28.60;99.90;;;;;;5032179;28;20025;-85
2023/06/19 11:49:17;;;;;;;0.28;0.28;;;28.70;99.90;;;;;;5032309;28;20034;-84
2023/06/19 11:51:43;;;;;;;1.67;0.77;;;28.80;99.90;;;;;;5032294;28;20029;-84
2023/06/19 11:54:10;;;;;;;0.65;0.65;;;28.50;99.90;;;;;;5032630;28;20108;-85
2023/06/19 11:56:36;;;;;;;0.40;0.40;;;28.50;99.90;;;;;;5032081;28;20124;-85
2023/06/19 11:59:03;;;;;;;1.00;0.20;;;28.60;99.90;;;;;;5032239;28;20041;-84
2023/06/19 12:01:29;;;;;;;0.90;0.70;;;28.50;99.90;;;;;;5031854;28;20077;-85
2023/06/19 12:03:55;;;;;;;0.13;0.13;;;28.50;99.90;;;;;;5032521;28;20029;-86
2023/06/19 12:06:21;;;;;;;0.75;0.75;;;28.50;99.90;;;;;;5014390;28;20441;-86
2023/06/19 12:08:46;;;;;;;0.45;0.45;;;28.70;99.90;;;;;;5032226;28;20108;-86
2023/06/19 12:11:13;;;;;;;0.45;0.45;;;29.20;99.90;;;;;;5032058;28;20044;-85
2023/06/19 12:13:42;;;;;;;0.52;0.47;;;28.80;99.90;;;;;;5032305;28;20048;-86
2023/06/19 12:16:09;;;;;;;0.40;0.40;;;29.20;99.90;;;;;;5031974;28;20482;-86
2023/06/19 12:18:35;;;;;;;1.02;0.82;;;29.40;99.90;;;;;;5032028;28;20033;-86
2023/06/19 12:21:00;;;;;;;0.40;0.40;;;29.40;99.90;;;;;;5032229;28;20036;-86
2023/06/19 12:23:26;;;;;;;0.43;0.43;;;29.50;99.90;;;;;;5032027;28;20351;-86
2023/06/19 12:25:51;;;;;;;1.77;0.95;;;29.60;99.90;;;;;;5031974;28;20155;-86
2023/06/19 12:28:18;;;;;;;0.30;0.30;;;29.60;99.90;;;;;;5032118;28;20116;-86
2023/06/19 12:30:45;;;;;;;1.83;0.90;;;30.10;99.90;;;;;;5010490;28;20033;-86
2023/06/19 12:33:11;;;;;;;0.98;0.70;;;30.00;99.90;;;;;;5012404;28;20382;-86
2023/06/19 12:35:41;;;;;;;0.40;0.40;;;30.50;99.90;;;;;;5012103;28;20022;-87
2023/06/19 12:38:07;;;;;;;0.63;0.43;;;31.20;99.90;;;;;;5011904;28;20042;-86
2023/06/19 12:40:33;;;;;;;0.63;0.57;;;31.10;99.90;;;;;;5012580;28;20033;-87
2023/06/19 12:42:59;;;;;;;0.75;0.50;;;31.20;99.90;;;;;;5023795;28;20026;-86
2023/06/19 12:45:25;;;;;;;0.85;0.85;;;31.30;99.90;;;;;;5033260;28;20029;-86
2023/06/19 12:47:50;;;;;;;1.05;0.85;;;31.30;99.90;;;;;;5036127;28;20367;-86
2023/06/19 12:50:16;;;;;;;0.63;0.63;;;31.80;99.90;;;;;;5035178;28;20117;-87